sensor_id;sensor_type;location;lat;lon;timestamp;P1;durP1;ratioP1;P2;durP2;ratioP2
52468;SDS011;38381;53.688;10.776;2024-03-08T00:02:24;18.52;;;12.32;;
52468;SDS011;38381;53.688;10.776;2024-03-08T00:07:24;19.00;;;13.70;;
52468;SDS011;38381;53.688;10.776;2024-03-08T00:12:27;17.80;;;13.40;;
52468;SDS011;38381;53.688;10.776;2024-03-08T00:17:28;16.88;;;13.32;;
52468;SDS011;38381;53.688;10.776;2024-03-08T00:22:28;16.95;;;11.40;;
52468;SDS011;38381;53.688;10.776;2024-03-08T00:27:30;27.27;;;14.33;;
52468;SDS011;38381;53.688;10.776;2024-03-08T00:32:31;19.90;;;13.93;;
52468;SDS011;38381;53.688;10.776;2024-03-08T00:37:32;17.10;;;13.65;;
52468;SDS011;38381;53.688;10.776;2024-03-08T00:42:32;20.83;;;14.60;;
52468;SDS011;38381;53.688;10.776;2024-03-08T00:47:33;19.27;;;13.57;;
52468;SDS011;38381;53.688;10.776;2024-03-08T00:52:33;19.33;;;12.77;;
52468;SDS011;38381;53.688;10.776;2024-03-08T00:57:34;19.10;;;13.68;;
52468;SDS011;38381;53.688;10.776;2024-03-08T01:02:35;18.02;;;12.30;;
52468;SDS011;38381;53.688;10.776;2024-03-08T01:07:36;20.42;;;13.88;;
52468;SDS011;38381;53.688;10.776;2024-03-08T01:12:36;19.80;;;14.18;;
52468;SDS011;38381;53.688;10.776;2024-03-08T01:17:37;21.98;;;13.63;;
52468;SDS011;38381;53.688;10.776;2024-03-08T01:22:38;18.45;;;12.35;;
52468;SDS011;38381;53.688;10.776;2024-03-08T01:27:39;20.67;;;14.32;;
52468;SDS011;38381;53.688;10.776;2024-03-08T01:32:39;17.27;;;12.55;;
52468;SDS011;38381;53.688;10.776;2024-03-08T01:37:40;19.00;;;13.25;;
52468;SDS011;38381;53.688;10.776;2024-03-08T01:42:40;18.05;;;13.52;;
52468;SDS011;38381;53.688;10.776;2024-03-08T01:47:44;18.63;;;14.63;;
52468;SDS011;38381;53.688;10.776;2024-03-08T01:52:48;20.17;;;11.52;;
52468;SDS011;38381;53.688;10.776;2024-03-08T01:57:48;19.98;;;12.65;;
52468;SDS011;38381;53.688;10.776;2024-03-08T02:02:49;17.40;;;13.55;;
52468;SDS011;38381;53.688;10.776;2024-03-08T02:07:51;16.27;;;11.60;;
52468;SDS011;38381;53.688;10.776;2024-03-08T02:12:52;14.20;;;10.68;;
52468;SDS011;38381;53.688;10.776;2024-03-08T02:17:52;17.33;;;11.95;;
52468;SDS011;38381;53.688;10.776;2024-03-08T02:22:53;17.33;;;11.70;;
52468;SDS011;38381;53.688;10.776;2024-03-08T02:27:54;16.48;;;12.57;;
52468;SDS011;38381;53.688;10.776;2024-03-08T02:32:54;18.70;;;13.60;;
52468;SDS011;38381;53.688;10.776;2024-03-08T02:37:54;21.20;;;13.60;;
52468;SDS011;38381;53.688;10.776;2024-03-08T02:42:57;20.67;;;12.52;;
52468;SDS011;38381;53.688;10.776;2024-03-08T02:47:58;17.85;;;12.98;;
52468;SDS011;38381;53.688;10.776;2024-03-08T02:52:58;17.20;;;13.00;;
52468;SDS011;38381;53.688;10.776;2024-03-08T02:57:59;18.05;;;11.50;;
52468;SDS011;38381;53.688;10.776;2024-03-08T03:02:59;15.32;;;11.00;;
52468;SDS011;38381;53.688;10.776;2024-03-08T03:08:03;22.77;;;13.15;;
52468;SDS011;38381;53.688;10.776;2024-03-08T03:13:08;18.17;;;12.68;;
52468;SDS011;38381;53.688;10.776;2024-03-08T03:18:09;18.23;;;12.32;;
52468;SDS011;38381;53.688;10.776;2024-03-08T03:23:09;19.15;;;12.50;;
52468;SDS011;38381;53.688;10.776;2024-03-08T03:28:13;16.20;;;13.23;;
52468;SDS011;38381;53.688;10.776;2024-03-08T03:33:18;19.13;;;13.18;;
52468;SDS011;38381;53.688;10.776;2024-03-08T03:38:18;21.92;;;15.90;;
52468;SDS011;38381;53.688;10.776;2024-03-08T03:43:23;26.60;;;16.10;;
52468;SDS011;38381;53.688;10.776;2024-03-08T03:48:24;24.48;;;15.93;;
52468;SDS011;38381;53.688;10.776;2024-03-08T03:53:24;24.27;;;16.92;;
52468;SDS011;38381;53.688;10.776;2024-03-08T03:58:26;24.03;;;16.67;;
52468;SDS011;38381;53.688;10.776;2024-03-08T04:03:27;30.30;;;18.52;;
52468;SDS011;38381;53.688;10.776;2024-03-08T04:08:27;25.42;;;17.30;;
52468;SDS011;38381;53.688;10.776;2024-03-08T04:13:27;23.85;;;18.17;;
52468;SDS011;38381;53.688;10.776;2024-03-08T04:18:28;23.83;;;18.48;;
52468;SDS011;38381;53.688;10.776;2024-03-08T04:23:28;30.05;;;19.70;;
52468;SDS011;38381;53.688;10.776;2024-03-08T04:28:29;25.92;;;17.90;;
52468;SDS011;38381;53.688;10.776;2024-03-08T04:33:29;23.48;;;17.40;;
52468;SDS011;38381;53.688;10.776;2024-03-08T04:38:30;29.50;;;18.58;;
52468;SDS011;38381;53.688;10.776;2024-03-08T04:43:31;30.15;;;19.55;;
52468;SDS011;38381;53.688;10.776;2024-03-08T04:48:31;30.27;;;18.23;;
52468;SDS011;38381;53.688;10.776;2024-03-08T04:53:31;25.27;;;18.02;;
52468;SDS011;38381;53.688;10.776;2024-03-08T04:58:35;28.50;;;19.83;;
52468;SDS011;38381;53.688;10.776;2024-03-08T05:03:36;28.17;;;18.70;;
52468;SDS011;38381;53.688;10.776;2024-03-08T05:08:36;30.52;;;19.42;;
52468;SDS011;38381;53.688;10.776;2024-03-08T05:13:37;26.85;;;18.42;;
52468;SDS011;38381;53.688;10.776;2024-03-08T05:18:37;32.53;;;20.30;;
52468;SDS011;38381;53.688;10.776;2024-03-08T05:23:38;31.27;;;20.65;;
52468;SDS011;38381;53.688;10.776;2024-03-08T05:28:38;25.23;;;20.17;;
52468;SDS011;38381;53.688;10.776;2024-03-08T05:33:39;27.73;;;19.55;;
52468;SDS011;38381;53.688;10.776;2024-03-08T05:38:39;29.50;;;18.92;;
52468;SDS011;38381;53.688;10.776;2024-03-08T05:43:41;31.30;;;19.70;;
52468;SDS011;38381;53.688;10.776;2024-03-08T05:48:42;26.75;;;19.38;;
52468;SDS011;38381;53.688;10.776;2024-03-08T05:53:42;27.30;;;18.45;;
52468;SDS011;38381;53.688;10.776;2024-03-08T05:58:43;27.33;;;17.77;;
52468;SDS011;38381;53.688;10.776;2024-03-08T06:03:44;26.98;;;19.05;;
52468;SDS011;38381;53.688;10.776;2024-03-08T06:08:45;28.15;;;17.23;;
52468;SDS011;38381;53.688;10.776;2024-03-08T06:13:48;31.02;;;20.52;;
52468;SDS011;38381;53.688;10.776;2024-03-08T06:18:49;31.73;;;19.60;;
52468;SDS011;38381;53.688;10.776;2024-03-08T06:23:50;31.58;;;21.40;;
52468;SDS011;38381;53.688;10.776;2024-03-08T06:28:51;27.48;;;18.73;;
52468;SDS011;38381;53.688;10.776;2024-03-08T06:33:51;30.05;;;21.63;;
52468;SDS011;38381;53.688;10.776;2024-03-08T06:38:54;30.48;;;20.77;;
52468;SDS011;38381;53.688;10.776;2024-03-08T06:43:55;32.03;;;20.52;;
52468;SDS011;38381;53.688;10.776;2024-03-08T06:48:58;31.42;;;20.27;;
52468;SDS011;38381;53.688;10.776;2024-03-08T06:53:58;29.58;;;20.45;;
52468;SDS011;38381;53.688;10.776;2024-03-08T06:58:58;28.77;;;20.40;;
52468;SDS011;38381;53.688;10.776;2024-03-08T07:03:59;30.40;;;22.35;;
52468;SDS011;38381;53.688;10.776;2024-03-08T07:09:02;28.13;;;19.92;;
52468;SDS011;38381;53.688;10.776;2024-03-08T07:14:03;30.50;;;19.30;;
52468;SDS011;38381;53.688;10.776;2024-03-08T07:19:05;31.95;;;20.58;;
52468;SDS011;38381;53.688;10.776;2024-03-08T07:24:07;32.37;;;23.23;;
52468;SDS011;38381;53.688;10.776;2024-03-08T07:29:17;28.55;;;21.90;;
52468;SDS011;38381;53.688;10.776;2024-03-08T07:34:17;33.53;;;23.02;;
52468;SDS011;38381;53.688;10.776;2024-03-08T07:39:18;28.27;;;19.63;;
52468;SDS011;38381;53.688;10.776;2024-03-08T07:44:19;24.45;;;17.70;;
52468;SDS011;38381;53.688;10.776;2024-03-08T07:49:19;28.13;;;19.63;;
52468;SDS011;38381;53.688;10.776;2024-03-08T07:54:20;29.13;;;21.10;;
52468;SDS011;38381;53.688;10.776;2024-03-08T07:59:20;36.20;;;19.63;;
52468;SDS011;38381;53.688;10.776;2024-03-08T08:04:21;32.95;;;21.08;;
52468;SDS011;38381;53.688;10.776;2024-03-08T08:09:24;29.92;;;20.35;;
52468;SDS011;38381;53.688;10.776;2024-03-08T08:14:34;35.30;;;24.50;;
52468;SDS011;38381;53.688;10.776;2024-03-08T08:19:34;33.17;;;20.95;;
52468;SDS011;38381;53.688;10.776;2024-03-08T08:24:38;28.02;;;23.30;;
52468;SDS011;38381;53.688;10.776;2024-03-08T08:29:40;31.25;;;21.30;;
52468;SDS011;38381;53.688;10.776;2024-03-08T08:34:40;31.83;;;22.85;;
52468;SDS011;38381;53.688;10.776;2024-03-08T08:39:42;33.77;;;19.67;;
52468;SDS011;38381;53.688;10.776;2024-03-08T08:44:43;32.92;;;21.77;;
52468;SDS011;38381;53.688;10.776;2024-03-08T08:49:43;32.03;;;22.45;;
52468;SDS011;38381;53.688;10.776;2024-03-08T08:54:44;34.58;;;22.60;;
52468;SDS011;38381;53.688;10.776;2024-03-08T08:59:45;31.75;;;20.73;;
52468;SDS011;38381;53.688;10.776;2024-03-08T09:04:45;33.70;;;21.85;;
52468;SDS011;38381;53.688;10.776;2024-03-08T09:09:46;26.90;;;19.30;;
52468;SDS011;38381;53.688;10.776;2024-03-08T09:14:46;29.80;;;20.95;;
52468;SDS011;38381;53.688;10.776;2024-03-08T09:19:48;30.58;;;19.75;;
52468;SDS011;38381;53.688;10.776;2024-03-08T09:24:48;33.70;;;20.98;;
52468;SDS011;38381;53.688;10.776;2024-03-08T09:29:48;36.40;;;21.30;;
52468;SDS011;38381;53.688;10.776;2024-03-08T09:34:49;30.15;;;20.17;;
52468;SDS011;38381;53.688;10.776;2024-03-08T09:39:50;30.52;;;19.58;;
52468;SDS011;38381;53.688;10.776;2024-03-08T09:44:50;30.60;;;19.27;;
52468;SDS011;38381;53.688;10.776;2024-03-08T09:49:51;29.73;;;17.42;;
52468;SDS011;38381;53.688;10.776;2024-03-08T09:54:53;27.70;;;19.83;;
52468;SDS011;38381;53.688;10.776;2024-03-08T09:59:54;23.60;;;17.85;;
52468;SDS011;38381;53.688;10.776;2024-03-08T10:04:54;28.80;;;17.75;;
52468;SDS011;38381;53.688;10.776;2024-03-08T10:09:57;27.95;;;18.45;;
52468;SDS011;38381;53.688;10.776;2024-03-08T10:14:58;27.13;;;17.42;;
52468;SDS011;38381;53.688;10.776;2024-03-08T10:19:59;26.45;;;18.05;;
52468;SDS011;38381;53.688;10.776;2024-03-08T10:25:00;23.02;;;17.30;;
52468;SDS011;38381;53.688;10.776;2024-03-08T10:30:00;26.35;;;18.42;;
52468;SDS011;38381;53.688;10.776;2024-03-08T10:35:01;23.60;;;16.10;;
52468;SDS011;38381;53.688;10.776;2024-03-08T10:40:02;20.63;;;16.90;;
52468;SDS011;38381;53.688;10.776;2024-03-08T10:45:18;22.30;;;15.93;;
52468;SDS011;38381;53.688;10.776;2024-03-08T10:50:22;22.17;;;15.85;;
52468;SDS011;38381;53.688;10.776;2024-03-08T10:55:23;25.63;;;17.25;;
52468;SDS011;38381;53.688;10.776;2024-03-08T11:00:26;24.88;;;18.60;;
52468;SDS011;38381;53.688;10.776;2024-03-08T11:10:50;24.77;;;18.58;;
52468;SDS011;38381;53.688;10.776;2024-03-08T11:15:53;22.50;;;15.70;;
52468;SDS011;38381;53.688;10.776;2024-03-08T11:20:54;25.48;;;17.52;;
52468;SDS011;38381;53.688;10.776;2024-03-08T11:25:54;24.05;;;16.73;;
52468;SDS011;38381;53.688;10.776;2024-03-08T11:41:11;26.27;;;16.80;;
52468;SDS011;38381;53.688;10.776;2024-03-08T11:46:15;21.98;;;15.98;;
52468;SDS011;38381;53.688;10.776;2024-03-08T11:51:16;20.08;;;16.92;;
52468;SDS011;38381;53.688;10.776;2024-03-08T11:56:19;21.00;;;14.15;;
52468;SDS011;38381;53.688;10.776;2024-03-08T12:01:22;23.42;;;14.43;;
52468;SDS011;38381;53.688;10.776;2024-03-08T12:06:24;19.40;;;14.50;;
52468;SDS011;38381;53.688;10.776;2024-03-08T12:11:25;21.45;;;14.77;;
52468;SDS011;38381;53.688;10.776;2024-03-08T12:16:25;22.45;;;14.27;;
52468;SDS011;38381;53.688;10.776;2024-03-08T12:21:26;18.02;;;14.23;;
52468;SDS011;38381;53.688;10.776;2024-03-08T12:26:29;25.38;;;14.80;;
52468;SDS011;38381;53.688;10.776;2024-03-08T12:31:32;19.10;;;14.20;;
52468;SDS011;38381;53.688;10.776;2024-03-08T12:36:33;21.73;;;14.38;;
52468;SDS011;38381;53.688;10.776;2024-03-08T12:41:38;16.73;;;12.23;;
52468;SDS011;38381;53.688;10.776;2024-03-08T12:46:39;20.40;;;12.98;;
52468;SDS011;38381;53.688;10.776;2024-03-08T12:51:40;16.85;;;12.48;;
52468;SDS011;38381;53.688;10.776;2024-03-08T12:56:41;21.17;;;13.60;;
52468;SDS011;38381;53.688;10.776;2024-03-08T13:01:42;21.13;;;14.68;;
52468;SDS011;38381;53.688;10.776;2024-03-08T13:06:42;17.65;;;12.82;;
52468;SDS011;38381;53.688;10.776;2024-03-08T13:11:43;16.75;;;12.55;;
52468;SDS011;38381;53.688;10.776;2024-03-08T13:16:43;18.83;;;11.32;;
52468;SDS011;38381;53.688;10.776;2024-03-08T13:21:47;19.35;;;12.05;;
52468;SDS011;38381;53.688;10.776;2024-03-08T13:26:49;13.52;;;9.57;;
52468;SDS011;38381;53.688;10.776;2024-03-08T13:31:50;17.67;;;12.63;;
52468;SDS011;38381;53.688;10.776;2024-03-08T13:36:52;16.93;;;11.73;;
52468;SDS011;38381;53.688;10.776;2024-03-08T13:46:54;18.17;;;12.15;;
52468;SDS011;38381;53.688;10.776;2024-03-08T13:51:58;15.55;;;12.23;;
52468;SDS011;38381;53.688;10.776;2024-03-08T13:57:01;18.48;;;12.85;;
52468;SDS011;38381;53.688;10.776;2024-03-08T14:02:04;12.48;;;11.18;;
52468;SDS011;38381;53.688;10.776;2024-03-08T14:07:04;18.25;;;11.85;;
52468;SDS011;38381;53.688;10.776;2024-03-08T14:12:08;26.23;;;13.57;;
52468;SDS011;38381;53.688;10.776;2024-03-08T14:17:09;17.23;;;11.85;;
52468;SDS011;38381;53.688;10.776;2024-03-08T14:22:11;14.00;;;12.02;;
52468;SDS011;38381;53.688;10.776;2024-03-08T14:27:14;17.63;;;13.10;;
52468;SDS011;38381;53.688;10.776;2024-03-08T14:32:15;17.05;;;11.88;;
52468;SDS011;38381;53.688;10.776;2024-03-08T14:37:19;21.83;;;12.73;;
52468;SDS011;38381;53.688;10.776;2024-03-08T14:42:23;15.55;;;11.20;;
52468;SDS011;38381;53.688;10.776;2024-03-08T14:47:24;19.92;;;11.25;;
52468;SDS011;38381;53.688;10.776;2024-03-08T14:52:25;17.42;;;12.60;;
52468;SDS011;38381;53.688;10.776;2024-03-08T14:57:28;15.02;;;11.27;;
52468;SDS011;38381;53.688;10.776;2024-03-08T15:02:28;14.82;;;11.90;;
52468;SDS011;38381;53.688;10.776;2024-03-08T15:07:29;18.17;;;12.65;;
52468;SDS011;38381;53.688;10.776;2024-03-08T15:12:31;16.15;;;12.25;;
52468;SDS011;38381;53.688;10.776;2024-03-08T15:17:31;16.02;;;11.90;;
52468;SDS011;38381;53.688;10.776;2024-03-08T15:22:31;19.65;;;12.85;;
52468;SDS011;38381;53.688;10.776;2024-03-08T15:27:32;18.38;;;12.77;;
52468;SDS011;38381;53.688;10.776;2024-03-08T15:32:33;13.73;;;11.50;;
52468;SDS011;38381;53.688;10.776;2024-03-08T15:37:33;14.25;;;10.82;;
52468;SDS011;38381;53.688;10.776;2024-03-08T15:42:34;14.25;;;10.98;;
52468;SDS011;38381;53.688;10.776;2024-03-08T15:47:34;13.23;;;10.60;;
52468;SDS011;38381;53.688;10.776;2024-03-08T15:52:34;14.93;;;11.67;;
52468;SDS011;38381;53.688;10.776;2024-03-08T15:57:35;14.93;;;10.80;;
52468;SDS011;38381;53.688;10.776;2024-03-08T16:02:35;11.07;;;8.88;;
52468;SDS011;38381;53.688;10.776;2024-03-08T16:07:39;19.17;;;13.30;;
52468;SDS011;38381;53.688;10.776;2024-03-08T16:12:40;17.45;;;12.95;;
52468;SDS011;38381;53.688;10.776;2024-03-08T16:17:40;22.73;;;15.48;;
52468;SDS011;38381;53.688;10.776;2024-03-08T16:22:44;19.17;;;14.80;;
52468;SDS011;38381;53.688;10.776;2024-03-08T16:27:44;21.70;;;14.25;;
52468;SDS011;38381;53.688;10.776;2024-03-08T16:32:47;20.17;;;15.27;;
52468;SDS011;38381;53.688;10.776;2024-03-08T16:37:51;22.98;;;14.18;;
52468;SDS011;38381;53.688;10.776;2024-03-08T16:42:52;17.73;;;13.45;;
52468;SDS011;38381;53.688;10.776;2024-03-08T16:47:52;16.30;;;13.18;;
52468;SDS011;38381;53.688;10.776;2024-03-08T16:52:56;21.23;;;14.43;;
52468;SDS011;38381;53.688;10.776;2024-03-08T16:57:57;17.80;;;15.00;;
52468;SDS011;38381;53.688;10.776;2024-03-08T17:02:59;16.75;;;14.10;;
52468;SDS011;38381;53.688;10.776;2024-03-08T17:08:02;18.55;;;14.52;;
52468;SDS011;38381;53.688;10.776;2024-03-08T17:13:04;18.48;;;14.80;;
52468;SDS011;38381;53.688;10.776;2024-03-08T17:18:05;17.30;;;13.30;;
52468;SDS011;38381;53.688;10.776;2024-03-08T17:23:06;15.43;;;12.95;;
52468;SDS011;38381;53.688;10.776;2024-03-08T17:28:08;18.00;;;13.82;;
52468;SDS011;38381;53.688;10.776;2024-03-08T17:33:09;23.05;;;15.95;;
52468;SDS011;38381;53.688;10.776;2024-03-08T17:38:10;20.13;;;13.35;;
52468;SDS011;38381;53.688;10.776;2024-03-08T17:43:11;17.13;;;13.25;;
52468;SDS011;38381;53.688;10.776;2024-03-08T17:48:12;16.50;;;13.75;;
52468;SDS011;38381;53.688;10.776;2024-03-08T17:53:12;21.90;;;12.50;;
52468;SDS011;38381;53.688;10.776;2024-03-08T17:58:13;17.75;;;13.05;;
52468;SDS011;38381;53.688;10.776;2024-03-08T18:03:15;19.35;;;14.50;;
52468;SDS011;38381;53.688;10.776;2024-03-08T18:08:18;17.52;;;12.52;;
52468;SDS011;38381;53.688;10.776;2024-03-08T18:13:18;16.40;;;11.88;;
52468;SDS011;38381;53.688;10.776;2024-03-08T18:18:18;19.65;;;14.23;;
52468;SDS011;38381;53.688;10.776;2024-03-08T18:23:19;18.25;;;12.82;;
52468;SDS011;38381;53.688;10.776;2024-03-08T18:28:20;14.18;;;11.43;;
52468;SDS011;38381;53.688;10.776;2024-03-08T18:33:22;15.73;;;13.95;;
52468;SDS011;38381;53.688;10.776;2024-03-08T18:38:22;17.15;;;12.15;;
52468;SDS011;38381;53.688;10.776;2024-03-08T18:43:22;13.88;;;10.68;;
52468;SDS011;38381;53.688;10.776;2024-03-08T18:48:25;17.92;;;12.75;;
52468;SDS011;38381;53.688;10.776;2024-03-08T18:53:26;18.58;;;11.43;;
52468;SDS011;38381;53.688;10.776;2024-03-08T18:58:28;15.60;;;12.88;;
52468;SDS011;38381;53.688;10.776;2024-03-08T19:03:31;15.10;;;13.10;;
52468;SDS011;38381;53.688;10.776;2024-03-08T19:08:34;17.83;;;12.95;;
52468;SDS011;38381;53.688;10.776;2024-03-08T19:13:36;18.58;;;12.70;;
52468;SDS011;38381;53.688;10.776;2024-03-08T19:18:37;17.52;;;12.60;;
52468;SDS011;38381;53.688;10.776;2024-03-08T19:23:37;15.15;;;12.50;;
52468;SDS011;38381;53.688;10.776;2024-03-08T19:28:38;17.40;;;11.88;;
52468;SDS011;38381;53.688;10.776;2024-03-08T19:33:39;14.47;;;12.47;;
52468;SDS011;38381;53.688;10.776;2024-03-08T19:38:40;13.02;;;11.40;;
52468;SDS011;38381;53.688;10.776;2024-03-08T19:43:40;15.63;;;11.48;;
52468;SDS011;38381;53.688;10.776;2024-03-08T19:48:41;14.45;;;10.85;;
52468;SDS011;38381;53.688;10.776;2024-03-08T19:53:43;14.48;;;12.48;;
52468;SDS011;38381;53.688;10.776;2024-03-08T19:58:43;17.33;;;12.02;;
52468;SDS011;38381;53.688;10.776;2024-03-08T20:03:43;15.88;;;12.68;;
52468;SDS011;38381;53.688;10.776;2024-03-08T20:08:44;20.55;;;13.38;;
52468;SDS011;38381;53.688;10.776;2024-03-08T20:13:45;16.88;;;13.13;;
52468;SDS011;38381;53.688;10.776;2024-03-08T20:18:47;17.87;;;13.23;;
52468;SDS011;38381;53.688;10.776;2024-03-08T20:23:48;21.92;;;15.77;;
52468;SDS011;38381;53.688;10.776;2024-03-08T20:28:49;16.67;;;12.20;;
52468;SDS011;38381;53.688;10.776;2024-03-08T20:33:51;18.90;;;14.27;;
52468;SDS011;38381;53.688;10.776;2024-03-08T20:38:51;15.65;;;12.10;;
52468;SDS011;38381;53.688;10.776;2024-03-08T20:43:52;20.20;;;12.32;;
52468;SDS011;38381;53.688;10.776;2024-03-08T20:48:52;19.90;;;14.52;;
52468;SDS011;38381;53.688;10.776;2024-03-08T20:53:53;17.42;;;12.30;;
52468;SDS011;38381;53.688;10.776;2024-03-08T20:58:55;18.33;;;13.63;;
52468;SDS011;38381;53.688;10.776;2024-03-08T21:03:55;17.77;;;12.82;;
52468;SDS011;38381;53.688;10.776;2024-03-08T21:08:59;19.50;;;12.88;;
52468;SDS011;38381;53.688;10.776;2024-03-08T21:14:00;19.73;;;12.98;;
52468;SDS011;38381;53.688;10.776;2024-03-08T21:19:00;17.52;;;13.23;;
52468;SDS011;38381;53.688;10.776;2024-03-08T21:24:01;18.83;;;12.98;;
52468;SDS011;38381;53.688;10.776;2024-03-08T21:29:02;16.90;;;12.98;;
52468;SDS011;38381;53.688;10.776;2024-03-08T21:34:03;15.93;;;12.38;;
52468;SDS011;38381;53.688;10.776;2024-03-08T21:39:04;16.58;;;13.38;;
52468;SDS011;38381;53.688;10.776;2024-03-08T21:44:11;19.50;;;14.00;;
52468;SDS011;38381;53.688;10.776;2024-03-08T21:49:11;22.30;;;12.93;;
52468;SDS011;38381;53.688;10.776;2024-03-08T21:54:12;16.75;;;12.43;;
52468;SDS011;38381;53.688;10.776;2024-03-08T21:59:13;18.33;;;13.05;;
52468;SDS011;38381;53.688;10.776;2024-03-08T22:04:13;18.20;;;13.77;;
52468;SDS011;38381;53.688;10.776;2024-03-08T22:09:14;22.48;;;16.02;;
52468;SDS011;38381;53.688;10.776;2024-03-08T22:14:15;17.95;;;12.65;;
52468;SDS011;38381;53.688;10.776;2024-03-08T22:19:16;17.55;;;12.45;;
52468;SDS011;38381;53.688;10.776;2024-03-08T22:24:19;17.08;;;13.82;;
52468;SDS011;38381;53.688;10.776;2024-03-08T22:29:20;18.90;;;13.43;;
52468;SDS011;38381;53.688;10.776;2024-03-08T22:34:20;22.48;;;13.82;;
52468;SDS011;38381;53.688;10.776;2024-03-08T22:39:21;15.52;;;12.15;;
52468;SDS011;38381;53.688;10.776;2024-03-08T22:49:24;14.40;;;11.83;;
52468;SDS011;38381;53.688;10.776;2024-03-08T22:54:26;19.75;;;13.75;;
52468;SDS011;38381;53.688;10.776;2024-03-08T22:59:26;22.05;;;14.02;;
52468;SDS011;38381;53.688;10.776;2024-03-08T23:04:28;19.10;;;13.85;;
52468;SDS011;38381;53.688;10.776;2024-03-08T23:09:28;17.20;;;14.85;;
52468;SDS011;38381;53.688;10.776;2024-03-08T23:14:28;19.67;;;14.80;;
52468;SDS011;38381;53.688;10.776;2024-03-08T23:19:29;22.17;;;13.73;;
52468;SDS011;38381;53.688;10.776;2024-03-08T23:24:30;17.55;;;12.82;;
52468;SDS011;38381;53.688;10.776;2024-03-08T23:29:31;17.35;;;12.88;;
52468;SDS011;38381;53.688;10.776;2024-03-08T23:34:31;19.80;;;12.57;;
52468;SDS011;38381;53.688;10.776;2024-03-08T23:39:32;21.40;;;14.13;;
52468;SDS011;38381;53.688;10.776;2024-03-08T23:44:32;16.17;;;12.60;;
52468;SDS011;38381;53.688;10.776;2024-03-08T23:49:33;17.40;;;12.93;;
52468;SDS011;38381;53.688;10.776;2024-03-08T23:54:33;17.80;;;13.25;;
52468;SDS011;38381;53.688;10.776;2024-03-08T23:59:34;20.75;;;13.95;;
